Time;durP1;ratioP1;P1;durP2;ratioP2;P2;SDS_P1;SDS_P2;PMS_P1;PMS_P2;Temp;Humidity;BMP_temperature;BMP_pressure;BME280_temperature;BME280_humidity;BME280_pressure;Samples;Min_cycle;Max_cycle;Signal;HPM_P1;HPM_P2
2020/01/17 00:01:31;;;;;;;16.1;8.3;;;;;;;0.85;77.98828;943.4066;;;;
2020/01/17 00:03:57;;;;;;;11;6;;;;;;;0.71;78.24121;943.3688;;;;
2020/01/17 00:06:22;;;;;;;12.5;6.7;;;;;;;1.03;77.6875;943.4773;;;;
2020/01/17 00:08:47;;;;;;;13.4;6.8;;;;;;;0.75;78.43945;943.4824;;;;
2020/01/17 00:11:12;;;;;;;12.9;6.9;;;;;;;0.4;79.94434;943.4366;;;;
2020/01/17 00:13:38;;;;;;;11.2;6.1;;;;;;;0.52;79.25391;943.4028;;;;
2020/01/17 00:16:03;;;;;;;11.7;6.2;;;;;;;0.48;79.13574;943.4084;;;;
2020/01/17 00:18:28;;;;;;;9.7;6;;;;;;;0.53;78.98828;943.4056;;;;
2020/01/17 00:20:53;;;;;;;12.2;6.7;;;;;;;0.29;79.95898;943.3436;;;;
2020/01/17 00:23:18;;;;;;;12.2;6.6;;;;;;;0.57;79.05273;943.3078;;;;
2020/01/17 00:25:43;;;;;;;10.1;5.9;;;;;;;0.69;77.92676;943.364;;;;
2020/01/17 00:28:08;;;;;;;8.1;5.3;;;;;;;0.68;77.97949;943.2991;;;;
2020/01/17 00:30:46;;;;;;;7.1;4.5;;;;;;;0.75;77.42383;943.3018;;;;
2020/01/17 00:37:50;;;;;;;7.4;4.5;;;;;;;0.59;77.75098;943.2162;;;;
2020/01/17 00:40:17;;;;;;;8;4.7;;;;;;;0.47;78.20898;943.2126;;;;
2020/01/17 00:42:39;;;;;;;8.1;5.1;;;;;;;0.54;78.03125;943.2683;;;;
2020/01/17 00:45:05;;;;;;;11.5;6.1;;;;;;;0.12;79.9707;943.2173;;;;
2020/01/17 00:47:30;;;;;;;10.2;6.1;;;;;;;0.13;80.08398;943.1863;;;;
2020/01/17 00:49:55;;;;;;;9.6;5.8;;;;;;;0.07;80.375;943.2239;;;;
2020/01/17 00:52:21;;;;;;;9.1;5.3;;;;;;;0.08;80.27441;943.2029;;;;
2020/01/17 00:54:46;;;;;;;8.2;4.8;;;;;;;0.13;80.10645;943.1119;;;;
2020/01/17 00:57:11;;;;;;;8;5.1;;;;;;;0.28;79.1875;943.239;;;;
2020/01/17 00:59:36;;;;;;;8.6;5.2;;;;;;;0.28;78.94141;943.1917;;;;
2020/01/17 01:02:01;;;;;;;8.8;5;;;;;;;0.29;78.9668;943.1825;;;;
2020/01/17 01:04:26;;;;;;;7.1;4.2;;;;;;;0.32;78.28027;943.1727;;;;
2020/01/17 01:06:52;;;;;;;7.3;3.9;;;;;;;0.42;77.89746;943.0776;;;;
2020/01/17 01:09:17;;;;;;;6.6;3.6;;;;;;;0.66;77.01465;943.0753;;;;
2020/01/17 01:11:42;;;;;;;5.9;3.9;;;;;;;0.83;76.12012;943.055;;;;
2020/01/17 01:14:07;;;;;;;6.5;4.2;;;;;;;0.44;77.04395;943.1205;;;;
2020/01/17 01:16:32;;;;;;;6.3;4.3;;;;;;;0.38;77.74414;942.9975;;;;
2020/01/17 01:18:57;;;;;;;17.1;15.5;;;;;;;0.16;78.66406;942.9807;;;;
2020/01/17 01:21:22;;;;;;;8.3;5;;;;;;;-0.08;79.94434;943.025;;;;
2020/01/17 01:23:47;;;;;;;8.3;5.3;;;;;;;-0.1;80.66504;942.9963;;;;
2020/01/17 01:26:13;;;;;;;8.2;5.2;;;;;;;0.08;79.81934;943.0287;;;;
2020/01/17 01:28:38;;;;;;;11.3;6.5;;;;;;;0.44;78.0918;942.9183;;;;
2020/01/17 01:31:03;;;;;;;9.9;5.3;;;;;;;0.62;76.80957;943.0106;;;;
2020/01/17 01:33:28;;;;;;;7.7;4.9;;;;;;;0.52;76.86719;943.0603;;;;
2020/01/17 01:35:53;;;;;;;7.8;4.9;;;;;;;0.56;76.69727;943.0267;;;;
2020/01/17 01:38:18;;;;;;;7.1;4.6;;;;;;;0.34;77.24902;943.0268;;;;
2020/01/17 01:40:43;;;;;;;5.8;3.9;;;;;;;0.2;77.93555;943.0192;;;;
2020/01/17 01:43:08;;;;;;;5.3;3.8;;;;;;;0.42;77.44043;943.0087;;;;
2020/01/17 01:45:33;;;;;;;6.5;4.2;;;;;;;0.33;77.46875;943.0068;;;;
2020/01/17 01:47:59;;;;;;;6.3;3.9;;;;;;;0.19;78.10156;943.02;;;;
2020/01/17 01:50:24;;;;;;;6.7;3.9;;;;;;;0.09;78.2832;943.0106;;;;
2020/01/17 01:52:49;;;;;;;5.7;4;;;;;;;-0.12;79.34766;943.0133;;;;
2020/01/17 01:55:14;;;;;;;6.8;4.2;;;;;;;0.33;77.72461;942.9833;;;;
2020/01/17 01:57:39;;;;;;;5.5;3.9;;;;;;;0.34;77.48145;942.9655;;;;
2020/01/17 02:00:04;;;;;;;6.1;4;;;;;;;-0.09;79.26367;942.9348;;;;
2020/01/17 02:02:29;;;;;;;6.3;4.2;;;;;;;0.15;78.10352;942.8499;;;;
2020/01/17 02:05:38;;;;;;;6.9;4.3;;;;;;;0.25;77.49609;942.8549;;;;
2020/01/17 02:08:03;;;;;;;7.5;4.2;;;;;;;0.11;78.08594;942.8833;;;;
2020/01/17 02:10:28;;;;;;;8.2;4.4;;;;;;;0.32;77.63379;942.8653;;;;
2020/01/17 02:12:53;;;;;;;5.8;4;;;;;;;0.14;78.03516;942.8747;;;;
2020/01/17 02:15:19;;;;;;;6;3.7;;;;;;;0.02;78.34766;942.8703;;;;
2020/01/17 02:17:44;;;;;;;6.9;3.8;;;;;;;-0.01;78.24121;942.8127;;;;
2020/01/17 02:20:09;;;;;;;6.4;4.2;;;;;;;-0.01;78.62012;942.8152;;;;
2020/01/17 02:22:34;;;;;;;7.7;4.3;;;;;;;0.31;77.4873;942.8215;;;;
2020/01/17 02:24:59;;;;;;;7;4.5;;;;;;;0.1;77.92871;942.734;;;;
2020/01/17 02:27:25;;;;;;;6.5;4.3;;;;;;;-0.16;78.95996;942.7568;;;;
2020/01/17 02:29:55;;;;;;;8.4;4.2;;;;;;;-0.44;80.21875;942.7178;;;;
2020/01/17 02:33:14;;;;;;;5.6;3.9;;;;;;;-0.52;80.52832;942.7422;;;;
2020/01/17 02:35:02;;;;;;;7;4;;;;;;;-0.47;80.37109;942.7339;;;;
2020/01/17 02:42:00;;;;;;;7.6;4.4;;;;;;;0.36;76.11328;942.6824;;;;
2020/01/17 02:44:20;;;;;;;6.7;4.1;;;;;;;0.34;76.44629;942.7019;;;;
2020/01/17 02:46:45;;;;;;;5.7;3.6;;;;;;;0.05;77.02734;942.7183;;;;
2020/01/17 02:49:10;;;;;;;6.2;4;;;;;;;-0.14;78.13965;942.665;;;;
2020/01/17 02:51:36;;;;;;;6.2;3.9;;;;;;;-0.22;78.59375;942.5809;;;;
2020/01/17 02:54:01;;;;;;;6.7;3.6;;;;;;;-0.17;78.47949;942.5243;;;;
2020/01/17 02:56:26;;;;;;;5.6;3.5;;;;;;;-0.21;78.18164;942.6774;;;;
2020/01/17 02:58:51;;;;;;;5.2;3.5;;;;;;;0.02;77.55664;942.6763;;;;
2020/01/17 03:01:16;;;;;;;5.8;3.5;;;;;;;0.08;77.01172;942.6866;;;;
2020/01/17 03:03:41;;;;;;;6.1;3.6;;;;;;;0.2;76.45215;942.7008;;;;
2020/01/17 03:06:07;;;;;;;7.1;3.4;;;;;;;0.37;75.53516;942.6525;;;;
2020/01/17 03:08:32;;;;;;;6.4;3.8;;;;;;;-0.19;77.30762;942.5266;;;;
2020/01/17 03:10:57;;;;;;;5;3.5;;;;;;;-0.08;77.51465;942.6027;;;;
2020/01/17 03:13:22;;;;;;;5.9;3.5;;;;;;;0.14;76.30859;942.6939;;;;
2020/01/17 03:15:47;;;;;;;6.4;3.5;;;;;;;-0.05;76.94043;942.6513;;;;
2020/01/17 03:18:12;;;;;;;6.8;3.5;;;;;;;-0.17;77.72266;942.622;;;;
2020/01/17 03:20:37;;;;;;;6.2;3.5;;;;;;;-0.41;78.42285;942.6533;;;;
2020/01/17 03:23:03;;;;;;;4.9;3.4;;;;;;;-0.16;77.7334;942.6287;;;;
2020/01/17 03:25:28;;;;;;;6.3;3.5;;;;;;;-0.37;78.30762;942.6675;;;;
2020/01/17 03:27:53;;;;;;;4.4;2.9;;;;;;;-0.75;79.94922;942.6786;;;;
2020/01/17 03:30:18;;;;;;;4.5;3.2;;;;;;;-0.59;79.63379;942.6741;;;;
2020/01/17 03:32:43;;;;;;;4.9;3.2;;;;;;;-0.55;79.46582;942.6257;;;;
2020/01/17 03:35:08;;;;;;;5.1;3.3;;;;;;;-0.4;78.90527;942.58;;;;
2020/01/17 03:37:34;;;;;;;4.4;3;;;;;;;-0.3;78.40039;942.6301;;;;
2020/01/17 03:39:59;;;;;;;4.7;3;;;;;;;-0.23;77.70117;942.6194;;;;
2020/01/17 03:42:24;;;;;;;7.7;4.1;;;;;;;-0.04;77.60059;942.692;;;;
2020/01/17 03:44:49;;;;;;;10;4.4;;;;;;;-0.02;77.4707;942.6514;;;;
2020/01/17 03:47:21;;;;;;;10.2;4.2;;;;;;;-0.5;78.60645;942.6114;;;;
2020/01/17 03:49:46;;;;;;;6.7;3.4;;;;;;;-0.61;78.93262;942.6325;;;;
2020/01/17 03:52:11;;;;;;;6.4;3.3;;;;;;;-0.35;77.83398;942.6742;;;;
2020/01/17 03:54:36;;;;;;;7.5;3.9;;;;;;;-0.11;76.76367;942.6592;;;;
2020/01/17 03:57:01;;;;;;;9.8;4.2;;;;;;;-0.34;77.2666;942.5988;;;;
2020/01/17 03:59:26;;;;;;;10.5;4.4;;;;;;;-0.48;77.93262;942.6066;;;;
2020/01/17 04:02:28;;;;;;;8.4;3.9;;;;;;;-0.24;76.74023;942.6139;;;;
2020/01/17 04:04:53;;;;;;;6.7;3.5;;;;;;;-0.53;77.67676;942.601;;;;
2020/01/17 04:07:18;;;;;;;8;3.9;;;;;;;-1.11;80.33789;942.6768;;;;
2020/01/17 04:09:43;;;;;;;7.3;3.9;;;;;;;-0.96;80.25488;942.6683;;;;
2020/01/17 04:12:08;;;;;;;5.6;3.7;;;;;;;-0.97;79.91797;942.6208;;;;
2020/01/17 04:14:33;;;;;;;7;3.6;;;;;;;-0.97;80.1543;942.6392;;;;
2020/01/17 04:16:58;;;;;;;6.3;4;;;;;;;-1.02;80.23145;942.5997;;;;
2020/01/17 04:19:23;;;;;;;6.5;3.9;;;;;;;-0.56;78.50781;942.5885;;;;
2020/01/17 04:21:48;;;;;;;8.7;5.6;;;;;;;-0.4;77.3457;942.5615;;;;
2020/01/17 04:24:13;;;;;;;14.7;8.7;;;;;;;-0.32;76.82617;942.5811;;;;
2020/01/17 04:26:38;;;;;;;12.9;8.1;;;;;;;-0.62;77.85059;942.6122;;;;
2020/01/17 04:29:04;;;;;;;9.7;6.1;;;;;;;-0.57;77.70313;942.6005;;;;
2020/01/17 04:31:29;;;;;;;9.6;5.6;;;;;;;-0.87;78.78223;942.6175;;;;
2020/01/17 04:33:54;;;;;;;9.3;5.4;;;;;;;-0.8;78.92871;942.5797;;;;
2020/01/17 04:36:19;;;;;;;9.1;5.5;;;;;;;-0.52;77.94727;942.6243;;;;
2020/01/17 04:38:44;;;;;;;7.8;4.9;;;;;;;-0.26;76.63672;942.5833;;;;
2020/01/17 04:43:34;;;;;;;6.6;4;;;;;;;-0.04;75.58496;942.5783;;;;
2020/01/17 04:46:00;;;;;;;5;3.3;;;;;;;0.01;75.1377;942.4832;;;;
2020/01/17 04:48:25;;;;;;;4.5;3.3;;;;;;;-0.26;76.3125;942.5893;;;;
2020/01/17 04:50:50;;;;;;;5.3;3.3;;;;;;;-0.05;75.33789;942.5467;;;;
2020/01/17 04:53:15;;;;;;;6.1;3.7;;;;;;;-0.18;76.52734;942.5974;;;;
2020/01/17 04:55:40;;;;;;;6.4;4.1;;;;;;;-0.17;76.3418;942.5828;;;;
2020/01/17 04:58:05;;;;;;;6.8;4.2;;;;;;;-0.16;76.08594;942.6022;;;;
2020/01/17 05:00:30;;;;;;;10.9;5.3;;;;;;;-0.12;75.86035;942.6584;;;;
2020/01/17 05:02:56;;;;;;;9.6;5.9;;;;;;;-0.18;75.96191;942.6883;;;;
2020/01/17 05:05:21;;;;;;;10.3;6.6;;;;;;;-0.34;76.39941;942.7033;;;;
2020/01/17 05:07:46;;;;;;;9.1;5.6;;;;;;;-0.32;76.40332;942.6863;;;;
2020/01/17 05:10:11;;;;;;;8.9;5.3;;;;;;;-0.35;76.14258;942.7252;;;;
2020/01/17 05:12:36;;;;;;;8.8;5.5;;;;;;;-0.17;75.38379;942.7366;;;;
2020/01/17 05:15:01;;;;;;;8;5.2;;;;;;;-0.04;74.71582;942.7439;;;;
2020/01/17 05:17:26;;;;;;;7.2;4.7;;;;;;;-0.14;75.28906;942.7427;;;;
2020/01/17 05:19:51;;;;;;;12.6;7.5;;;;;;;-0.57;76.65723;942.7562;;;;
2020/01/17 05:22:16;;;;;;;13.9;9.2;;;;;;;-0.35;75.95313;942.7346;;;;
2020/01/17 05:24:41;;;;;;;15.5;10.3;;;;;;;-0.2;75.1123;942.7583;;;;
2020/01/17 05:27:06;;;;;;;17.2;10.2;;;;;;;-0.45;76.09082;942.7354;;;;
2020/01/17 05:29:32;;;;;;;12.7;8.2;;;;;;;-0.39;76.07813;942.6697;;;;
2020/01/17 05:31:57;;;;;;;12.8;7.5;;;;;;;-0.34;75.54297;942.6531;;;;
2020/01/17 05:34:22;;;;;;;11.9;7;;;;;;;-0.31;75.51465;942.7657;;;;
2020/01/17 05:36:47;;;;;;;12.4;6.7;;;;;;;-0.18;74.59082;942.781;;;;
2020/01/17 05:39:13;;;;;;;10.9;6;;;;;;;-0.63;76.51465;942.8015;;;;
2020/01/17 05:41:38;;;;;;;11;6.2;;;;;;;-0.66;77.3418;942.8395;;;;
2020/01/17 05:44:18;;;;;;;9.1;4.9;;;;;;;-0.46;76.36719;942.9166;;;;
2020/01/17 05:46:50;;;;;;;14.2;8.1;;;;;;;-0.82;77.61426;942.8631;;;;
2020/01/17 05:49:20;;;;;;;24.6;15.3;;;;;;;-0.62;77.57227;942.8164;;;;
2020/01/17 05:51:52;;;;;;;20.6;12;;;;;;;-1.08;79.29883;942.9224;;;;
2020/01/17 05:54:24;;;;;;;17.1;10.1;;;;;;;-0.83;78.3125;942.8872;;;;
2020/01/17 05:56:54;;;;;;;21.1;10.6;;;;;;;-0.66;77.72168;942.8883;;;;
2020/01/17 05:59:24;;;;;;;19.3;10.9;;;;;;;-0.76;78.04785;942.9339;;;;
2020/01/17 06:01:54;;;;;;;17.1;11;;;;;;;-0.88;78.44727;942.9805;;;;
2020/01/17 06:04:26;;;;;;;18.8;11.6;;;;;;;-1.07;79.61133;943.0593;;;;
2020/01/17 06:06:58;;;;;;;17.6;11.3;;;;;;;-0.81;78.17285;943.0012;;;;
2020/01/17 06:09:30;;;;;;;16.5;10.9;;;;;;;-0.57;77.31348;943.0178;;;;
2020/01/17 06:12:00;;;;;;;16.3;8.3;;;;;;;-0.79;78.06348;942.9883;;;;
2020/01/17 06:14:34;;;;;;;13.5;7.7;;;;;;;-0.87;78.01563;943.0545;;;;
2020/01/17 06:17:09;;;;;;;12.9;8;;;;;;;-1.05;78.93555;943.108;;;;
2020/01/17 06:19:41;;;;;;;20.1;12;;;;;;;-1.13;79.5332;942.9775;;;;
2020/01/17 06:22:14;;;;;;;23.5;15;;;;;;;-1.01;79.43457;943.0701;;;;
2020/01/17 06:24:44;;;;;;;27.3;16.9;;;;;;;-0.79;78.31934;943.0806;;;;
2020/01/17 06:27:08;;;;;;;29.8;16.4;;;;;;;-0.63;77.32617;943.1284;;;;
2020/01/17 06:29:33;;;;;;;26.6;15;;;;;;;-0.67;77.35254;943.1122;;;;
2020/01/17 06:31:58;;;;;;;21.1;13.6;;;;;;;-0.79;77.875;943.1472;;;;
2020/01/17 06:34:23;;;;;;;17.6;12.1;;;;;;;-0.92;77.85156;943.1125;;;;
2020/01/17 06:36:49;;;;;;;20.1;13.1;;;;;;;-0.94;78.02441;943.1573;;;;
2020/01/17 06:39:14;;;;;;;23.4;14.6;;;;;;;-0.94;77.96973;943.1241;;;;
2020/01/17 06:41:39;;;;;;;21;13.1;;;;;;;-0.86;77.58301;943.233;;;;
2020/01/17 06:45:38;;;;;;;18.7;12.4;;;;;;;-0.98;77.36133;943.1755;;;;
2020/01/17 06:47:04;;;;;;;23.7;15.2;;;;;;;-1.19;78.90039;943.3438;;;;
2020/01/17 06:48:59;;;;;;;32.2;19.9;;;;;;;-0.9;77.78613;943.3214;;;;
2020/01/17 06:51:19;;;;;;;35.3;20;;;;;;;-0.96;77.75391;943.2383;;;;
2020/01/17 06:53:45;;;;;;;31.4;17.3;;;;;;;-1.2;78.89746;943.2807;;;;
2020/01/17 06:56:10;;;;;;;29.5;15.8;;;;;;;-1.16;78.93945;943.2297;;;;
2020/01/17 06:58:35;;;;;;;27.1;15.5;;;;;;;-1.29;79.49316;943.267;;;;
2020/01/17 07:01:00;;;;;;;43.4;23.2;;;;;;;-1.15;78.97266;943.2904;;;;
2020/01/17 07:03:25;;;;;;;74.4;38;;;;;;;-1.08;78.30957;943.2363;;;;
2020/01/17 07:05:50;;;;;;;85;41;;;;;;;-1.08;78.30957;943.1519;;;;
2020/01/17 07:08:16;;;;;;;76.6;38.1;;;;;;;-0.99;78.02832;943.182;;;;
2020/01/17 07:10:41;;;;;;;76.1;39.6;;;;;;;-0.88;77.39063;943.0211;;;;
2020/01/17 07:13:06;;;;;;;59.3;29.5;;;;;;;-0.7;76.40137;943.0463;;;;
2020/01/17 07:15:32;;;;;;;52.7;27.2;;;;;;;-0.45;75.37891;943.1249;;;;
2020/01/17 07:17:57;;;;;;;51.8;27;;;;;;;-0.66;77.73145;943.1694;;;;
2020/01/17 07:20:22;;;;;;;53.4;29.5;;;;;;;-0.76;77.31445;943.0981;;;;
2020/01/17 07:22:47;;;;;;;43.4;24.6;;;;;;;-0.64;76.65527;943.0886;;;;
2020/01/17 07:25:12;;;;;;;36.3;19.4;;;;;;;-0.4;76.07715;943.0346;;;;
2020/01/17 07:27:38;;;;;;;32.7;18;;;;;;;-0.15;75.20898;943.0441;;;;
2020/01/17 07:30:03;;;;;;;28.3;17;;;;;;;-0.11;75.89453;943.0142;;;;
2020/01/17 07:32:28;;;;;;;27.1;15;;;;;;;-0.19;75.13574;942.9961;;;;
2020/01/17 07:34:53;;;;;;;28;15.1;;;;;;;-0.42;75.46094;943.0203;;;;
2020/01/17 07:37:18;;;;;;;24.7;13.6;;;;;;;-0.55;75.99316;942.9908;;;;
2020/01/17 07:39:44;;;;;;;27.6;14.4;;;;;;;-0.61;76.41699;942.9568;;;;
2020/01/17 07:42:09;;;;;;;25.9;14.5;;;;;;;-0.97;77.87402;942.9531;;;;
2020/01/17 07:44:34;;;;;;;21.1;11.5;;;;;;;-1.08;78.78809;942.9802;;;;
2020/01/17 07:46:59;;;;;;;23.5;10.7;;;;;;;-0.5;77.00488;942.978;;;;
2020/01/17 07:49:24;;;;;;;24.9;10.8;;;;;;;0.41;73.35645;942.9289;;;;
2020/01/17 07:51:50;;;;;;;20.8;10.6;;;;;;;1.26;69.77344;942.7978;;;;
2020/01/17 07:54:15;;;;;;;23.3;10.5;;;;;;;2.06;66.19922;942.7798;;;;
2020/01/17 07:56:40;;;;;;;16.6;8.7;;;;;;;2.65;63.38965;942.7481;;;;
2020/01/17 07:59:05;;;;;;;19.3;8.8;;;;;;;3.84;59.7793;942.7367;;;;
2020/01/17 08:01:30;;;;;;;15;6.8;;;;;;;4.64;56.98535;942.669;;;;
2020/01/17 08:03:56;;;;;;;15.6;6.9;;;;;;;5.1;55.40137;942.6711;;;;
2020/01/17 08:06:21;;;;;;;16.6;7.7;;;;;;;4.65;56.17676;942.6206;;;;
2020/01/17 08:08:46;;;;;;;22.1;9.6;;;;;;;4.61;56.65332;942.5723;;;;
2020/01/17 08:11:12;;;;;;;21.1;11.5;;;;;;;4.53;56.22656;942.4688;;;;
2020/01/17 08:13:37;;;;;;;21;11.6;;;;;;;5.03;55.37012;942.532;;;;
2020/01/17 08:16:02;;;;;;;22.6;11.7;;;;;;;5.71;53.25488;942.4519;;;;
2020/01/17 08:18:27;;;;;;;19.7;11.7;;;;;;;6.46;51.13281;942.3508;;;;
2020/01/17 08:20:53;;;;;;;18.3;9.6;;;;;;;7.07;48.59961;942.3074;;;;
2020/01/17 08:23:18;;;;;;;20.5;11;;;;;;;7.38;47.7168;942.288;;;;
2020/01/17 08:25:43;;;;;;;19.5;10.9;;;;;;;7.62;46.90527;942.2745;;;;
2020/01/17 08:28:08;;;;;;;18;10.8;;;;;;;7.3;47.52734;942.2762;;;;
2020/01/17 08:30:33;;;;;;;22.3;11.4;;;;;;;7.68;47.01367;942.2657;;;;
2020/01/17 08:32:58;;;;;;;20.5;10.2;;;;;;;8.04;45.75879;942.291;;;;
2020/01/17 08:35:24;;;;;;;22.7;9.6;;;;;;;8.5;44.7627;942.2728;;;;
2020/01/17 08:37:49;;;;;;;15.2;8.2;;;;;;;8.53;44.60645;942.2299;;;;
2020/01/17 08:40:14;;;;;;;13.4;6.7;;;;;;;8.82;43.55566;942.175;;;;
2020/01/17 08:42:39;;;;;;;14.2;7.2;;;;;;;8.92;43.33789;942.1208;;;;
2020/01/17 08:45:09;;;;;;;39;23;;;;;;;7.79;45.49316;942.1768;;;;
2020/01/17 08:54:45;;;;;;;19.2;8.2;;;;;;;8.78;43.9502;942.1636;;;;
2020/01/17 08:57:11;;;;;;;16.6;7;;;;;;;8.39;44.55762;942.2079;;;;
2020/01/17 08:59:36;;;;;;;15.6;6.9;;;;;;;7.83;46.06543;942.198;;;;
2020/01/17 09:02:01;;;;;;;21.8;6.6;;;;;;;7.01;47.65332;942.2597;;;;
2020/01/17 09:04:26;;;;;;;18.4;6.7;;;;;;;5.77;50.95898;942.3259;;;;
2020/01/17 09:06:51;;;;;;;23.8;6.1;;;;;;;5.12;53.35059;942.3095;;;;
2020/01/17 09:09:16;;;;;;;37.5;8.5;;;;;;;4.66;55.0166;942.3139;;;;
2020/01/17 09:11:41;;;;;;;36.8;8.9;;;;;;;4.32;56.7627;942.3613;;;;
2020/01/17 09:14:07;;;;;;;33.5;9.3;;;;;;;4.25;57.82227;942.3314;;;;
2020/01/17 09:16:32;;;;;;;34.5;13.4;;;;;;;4.07;58.47266;942.3588;;;;
2020/01/17 09:18:57;;;;;;;54.1;14.4;;;;;;;3.93;59.21777;942.3514;;;;
2020/01/17 09:21:22;;;;;;;49.4;12.7;;;;;;;3.93;59.40918;942.2955;;;;
2020/01/17 09:23:47;;;;;;;28.9;10;;;;;;;3.92;59.04785;942.2832;;;;
2020/01/17 09:26:12;;;;;;;23.6;9.2;;;;;;;3.93;59.06055;942.2496;;;;
2020/01/17 09:28:38;;;;;;;60.3;11.4;;;;;;;4.02;59.00586;942.2388;;;;
2020/01/17 09:31:03;;;;;;;87.7;14;;;;;;;4.15;58.97852;942.2397;;;;
2020/01/17 09:33:28;;;;;;;60.9;11.5;;;;;;;4.32;58.34961;942.2592;;;;
2020/01/17 09:35:54;;;;;;;63.3;11.1;;;;;;;4.5;57.60742;942.291;;;;
2020/01/17 09:38:19;;;;;;;22.7;9.2;;;;;;;4.7;56.65527;942.3029;;;;
2020/01/17 09:40:44;;;;;;;17.7;6.1;;;;;;;4.8;55.33887;942.2697;;;;
2020/01/17 09:43:09;;;;;;;21.9;4.9;;;;;;;4.93;53.67676;942.2629;;;;
2020/01/17 09:45:34;;;;;;;61.7;9.9;;;;;;;5.09;54.40723;942.206;;;;
2020/01/17 09:47:59;;;;;;;33.9;6.6;;;;;;;5.34;53.88574;942.0848;;;;
2020/01/17 09:50:25;;;;;;;36.5;5.5;;;;;;;5.45;52.66895;942.1172;;;;
2020/01/17 09:52:50;;;;;;;46.4;5.3;;;;;;;5.67;52.95703;942.0539;;;;
2020/01/17 09:55:15;;;;;;;31.6;4.6;;;;;;;5.75;51.47656;942.0187;;;;
2020/01/17 09:57:40;;;;;;;49.2;14.2;;;;;;;5.95;50.4834;941.8837;;;;
2020/01/17 10:00:06;;;;;;;24.9;2.9;;;;;;;5.98;49.20996;941.9187;;;;
2020/01/17 10:02:31;;;;;;;15.6;2.1;;;;;;;6.04;48.7207;941.8631;;;;
2020/01/17 10:04:56;;;;;;;43.1;4.5;;;;;;;6.25;48.86914;941.905;;;;
2020/01/17 10:07:21;;;;;;;29.6;2.7;;;;;;;6.36;49.18555;941.7786;;;;
2020/01/17 10:09:47;;;;;;;23;2.9;;;;;;;6.59;48.90723;941.8501;;;;
2020/01/17 10:12:12;;;;;;;17.5;2.2;;;;;;;6.71;47.39453;941.8451;;;;
2020/01/17 10:14:37;;;;;;;13.1;2;;;;;;;6.86;46.7998;941.9156;;;;
2020/01/17 10:17:02;;;;;;;9;1.9;;;;;;;6.95;46.93457;941.8105;;;;
2020/01/17 10:19:28;;;;;;;3.7;1.4;;;;;;;7.13;47.63379;941.8262;;;;
2020/01/17 10:21:53;;;;;;;18.7;2.2;;;;;;;7.25;45.71973;941.8439;;;;
2020/01/17 10:24:18;;;;;;;66.8;41.1;;;;;;;7.4;45.63379;941.764;;;;
2020/01/17 10:26:43;;;;;;;6.2;2.7;;;;;;;7.59;44.76953;941.7511;;;;
2020/01/17 10:29:09;;;;;;;17.1;8.4;;;;;;;7.74;45.34082;941.6675;;;;
2020/01/17 10:31:34;;;;;;;33;13.8;;;;;;;7.86;43.98047;941.6589;;;;
2020/01/17 10:33:59;;;;;;;11.1;2.5;;;;;;;7.85;42.66309;941.676;;;;
2020/01/17 10:36:24;;;;;;;47.4;32.4;;;;;;;7.93;42.77344;941.6406;;;;
2020/01/17 10:38:49;;;;;;;36.6;27.3;;;;;;;7.82;43.11426;941.5903;;;;
2020/01/17 10:41:14;;;;;;;14.4;5.1;;;;;;;7.75;43.4248;941.6033;;;;
2020/01/17 10:43:39;;;;;;;9;3.2;;;;;;;7.8;43.01074;941.6111;;;;
2020/01/17 10:46:05;;;;;;;23.5;13.4;;;;;;;7.97;42.83301;941.5869;;;;
2020/01/17 10:48:31;;;;;;;7.6;2.1;;;;;;;7.92;41.61523;941.5406;;;;
2020/01/17 10:50:56;;;;;;;25.8;10.5;;;;;;;7.87;42.83594;941.5068;;;;
2020/01/17 10:53:21;;;;;;;43.4;18.1;;;;;;;7.96;44.08203;941.5486;;;;
2020/01/17 10:55:46;;;;;;;302.7;180.7;;;;;;;7.99;44.08398;941.5073;;;;
2020/01/17 10:58:11;;;;;;;20.6;6;;;;;;;7.93;43.66992;941.5035;;;;
2020/01/17 11:00:36;;;;;;;41.4;21.9;;;;;;;7.97;42.67383;941.4362;;;;
2020/01/17 11:03:01;;;;;;;23.4;12.5;;;;;;;8;42.21387;941.4221;;;;
2020/01/17 11:05:32;;;;;;;19.6;6;;;;;;;8.12;42.50879;941.3649;;;;
2020/01/17 11:08:03;;;;;;;32.4;9;;;;;;;8.09;43.7998;941.4031;;;;
2020/01/17 11:10:29;;;;;;;12.7;4.4;;;;;;;8.12;42.41699;941.3884;;;;
2020/01/17 11:12:56;;;;;;;9.5;5;;;;;;;8.17;41.73047;941.278;;;;
2020/01/17 11:15:09;;;;;;;10;3.3;;;;;;;8.37;40.75;941.2999;;;;
2020/01/17 11:17:33;;;;;;;8.3;2.4;;;;;;;8.51;41.02441;941.2587;;;;
2020/01/17 11:19:58;;;;;;;7.9;2;;;;;;;8.2;42.1416;941.2264;;;;
2020/01/17 11:22:23;;;;;;;15.5;3.2;;;;;;;8.38;41.88672;941.166;;;;
2020/01/17 11:24:48;;;;;;;10;2;;;;;;;8.62;40.94336;941.0511;;;;
2020/01/17 11:27:13;;;;;;;17.6;9.3;;;;;;;8.78;41.31055;940.978;;;;
2020/01/17 11:29:38;;;;;;;15.3;7.4;;;;;;;8.91;40.94824;940.9532;;;;
2020/01/17 11:32:03;;;;;;;7.1;1.7;;;;;;;8.9;40.62891;940.9102;;;;
2020/01/17 11:34:28;;;;;;;5.6;1.4;;;;;;;8.93;40.39258;940.8861;;;;
2020/01/17 11:36:54;;;;;;;4.9;1.3;;;;;;;9;40.84375;940.8589;;;;
2020/01/17 11:39:19;;;;;;;16.2;8.2;;;;;;;8.89;41.71973;940.8211;;;;
2020/01/17 11:41:44;;;;;;;5.2;1.5;;;;;;;9.18;39.17578;940.8998;;;;
2020/01/17 11:44:09;;;;;;;14.9;9.2;;;;;;;9.16;38.91211;940.8917;;;;
2020/01/17 11:46:34;;;;;;;9.7;2.4;;;;;;;9.31;39.55273;940.9113;;;;
2020/01/17 11:48:59;;;;;;;5;1.4;;;;;;;9.44;38.5957;940.902;;;;
2020/01/17 11:51:24;;;;;;;11.6;5.6;;;;;;;9.34;38.80273;940.8442;;;;
2020/01/17 11:53:49;;;;;;;10.8;5.1;;;;;;;9.42;38.77637;940.8104;;;;
2020/01/17 11:56:14;;;;;;;4.6;1.7;;;;;;;9.67;38.60449;940.7656;;;;
2020/01/17 11:58:39;;;;;;;8.7;2.4;;;;;;;9.76;37.99805;940.6987;;;;
2020/01/17 12:01:05;;;;;;;13.8;8;;;;;;;9.74;38.75977;940.6769;;;;
2020/01/17 12:03:30;;;;;;;6.7;3.3;;;;;;;9.95;37.14746;940.6304;;;;
2020/01/17 12:05:55;;;;;;;4.4;1.5;;;;;;;10.1;36.07715;940.6042;;;;
2020/01/17 12:08:20;;;;;;;8.2;1.8;;;;;;;10.24;36.16797;940.4828;;;;
2020/01/17 12:10:45;;;;;;;5.1;1.2;;;;;;;10.42;36.36719;940.5183;;;;
2020/01/17 12:13:10;;;;;;;4.6;1.3;;;;;;;10.62;36.38379;940.4637;;;;
2020/01/17 12:15:43;;;;;;;2.6;1.4;;;;;;;10.68;34.56055;940.4437;;;;
2020/01/17 12:18:13;;;;;;;12.5;1.9;;;;;;;10.81;35.12012;940.3951;;;;
2020/01/17 12:20:25;;;;;;;6.3;1.4;;;;;;;10.9;34.41895;940.3097;;;;
2020/01/17 12:22:51;;;;;;;7.6;1.6;;;;;;;10.93;34.02051;940.353;;;;
2020/01/17 12:25:16;;;;;;;23.5;2.5;;;;;;;10.88;33.97168;940.3533;;;;
2020/01/17 12:27:41;;;;;;;5.1;1.3;;;;;;;10.95;33.21094;940.307;;;;
2020/01/17 12:30:06;;;;;;;11.4;1.7;;;;;;;11.19;33.50391;940.223;;;;
2020/01/17 12:32:31;;;;;;;7.5;1.6;;;;;;;11.14;32.6084;940.2114;;;;
2020/01/17 12:34:56;;;;;;;4.3;1.3;;;;;;;11.21;32.80859;940.1694;;;;
2020/01/17 12:37:21;;;;;;;5.1;1.4;;;;;;;11.29;32.89453;940.1526;;;;
2020/01/17 12:39:46;;;;;;;8.8;1.6;;;;;;;11.31;33.04395;940.1049;;;;
2020/01/17 12:42:11;;;;;;;3.5;1.2;;;;;;;11.61;32.12891;940.1525;;;;
2020/01/17 12:44:37;;;;;;;7.1;1.2;;;;;;;11.34;31.90332;940.114;;;;
2020/01/17 12:47:02;;;;;;;7;1.3;;;;;;;11.63;30.85938;940.0605;;;;
2020/01/17 12:49:27;;;;;;;11.3;1.4;;;;;;;11.78;31.11035;940.1167;;;;
2020/01/17 12:51:52;;;;;;;11.8;1.7;;;;;;;11.66;31.63965;940.0543;;;;
2020/01/17 12:54:17;;;;;;;6.2;1.2;;;;;;;11.92;31.99121;940.0009;;;;
2020/01/17 12:56:43;;;;;;;2.8;1.1;;;;;;;12.06;31.2334;939.912;;;;
2020/01/17 12:59:08;;;;;;;6.6;1.2;;;;;;;12.14;31.33105;939.8942;;;;
2020/01/17 13:01:33;;;;;;;5.6;1.3;;;;;;;12.11;31.82227;939.8181;;;;
2020/01/17 13:03:58;;;;;;;6.3;1.6;;;;;;;12.29;31.63965;939.7883;;;;
2020/01/17 13:06:27;;;;;;;5.3;1.7;;;;;;;12.46;31.38965;939.7424;;;;
2020/01/17 13:09:40;;;;;;;4.9;1.2;;;;;;;12.64;32.125;939.7162;;;;
2020/01/17 13:11:38;;;;;;;3.5;1.4;;;;;;;12.78;31.12402;939.7286;;;;
2020/01/17 13:13:52;;;;;;;8.7;1.8;;;;;;;12.26;30.70996;939.7067;;;;
2020/01/17 13:16:19;;;;;;;5.3;1.2;;;;;;;12.58;30.58301;939.7004;;;;
2020/01/17 13:18:29;;;;;;;5.6;1.3;;;;;;;12.81;29.96777;939.6832;;;;
2020/01/17 13:20:54;;;;;;;5.9;1.1;;;;;;;12.93;30.2168;939.6623;;;;
2020/01/17 13:23:19;;;;;;;6.1;1.2;;;;;;;13.02;30.37207;939.5508;;;;
2020/01/17 13:25:44;;;;;;;6.6;1.2;;;;;;;12.97;29.83008;939.596;;;;
2020/01/17 13:28:10;;;;;;;6;1.2;;;;;;;12.89;30.09863;939.5999;;;;
2020/01/17 13:30:35;;;;;;;10.4;1.2;;;;;;;12.95;29.56445;939.5503;;;;
2020/01/17 13:33:00;;;;;;;5.2;1.1;;;;;;;13.09;30.50488;939.6389;;;;
2020/01/17 13:35:25;;;;;;;5.1;1.3;;;;;;;13.31;29.37012;939.6375;;;;
2020/01/17 13:37:50;;;;;;;6.4;1.2;;;;;;;13.43;30.04492;939.6498;;;;
2020/01/17 13:40:15;;;;;;;6.1;1.2;;;;;;;13.61;29.87402;939.6403;;;;
2020/01/17 13:42:41;;;;;;;2.2;1.1;;;;;;;13.84;30.32715;939.6248;;;;
2020/01/17 13:45:06;;;;;;;5.1;0.9;;;;;;;13.89;28.46582;939.6086;;;;
2020/01/17 13:47:31;;;;;;;3.2;0.9;;;;;;;13.96;28.55078;939.5637;;;;
2020/01/17 13:49:57;;;;;;;4.6;1.2;;;;;;;13.79;29.56348;939.5188;;;;
2020/01/17 13:52:22;;;;;;;8;1.4;;;;;;;13.75;29.74512;939.5173;;;;
2020/01/17 13:54:47;;;;;;;5.8;1.6;;;;;;;13.69;31.45508;939.5349;;;;
2020/01/17 13:57:12;;;;;;;5;1.4;;;;;;;13.67;30.24609;939.5173;;;;
2020/01/17 13:59:37;;;;;;;3.8;1.1;;;;;;;13.77;28.86133;939.4092;;;;
2020/01/17 14:02:03;;;;;;;8.4;1.2;;;;;;;14.7;27.93164;939.5302;;;;
2020/01/17 14:04:28;;;;;;;1.2;1;;;;;;;16.71;25.04883;939.4374;;;;
2020/01/17 14:06:53;;;;;;;4.7;1.2;;;;;;;18.46;22.76465;939.4978;;;;
2020/01/17 14:09:18;;;;;;;1.9;1.1;;;;;;;19.96;21.03418;939.4725;;;;
2020/01/17 14:11:43;;;;;;;2.5;1.2;;;;;;;20.93;20.74121;939.4556;;;;
2020/01/17 14:14:08;;;;;;;3.7;1.2;;;;;;;21.88;19.3916;939.4205;;;;
2020/01/17 14:16:34;;;;;;;7.2;2.4;;;;;;;22.19;19.87402;939.445;;;;
2020/01/17 14:18:59;;;;;;;16.9;3.5;;;;;;;22.36;20.08105;939.4783;;;;
2020/01/17 14:21:24;;;;;;;14.4;3.3;;;;;;;20.97;21.05859;939.4496;;;;
2020/01/17 14:23:49;;;;;;;4.6;2.6;;;;;;;17.22;24.79883;939.5198;;;;
2020/01/17 14:26:15;;;;;;;13.9;3.3;;;;;;;16.87;25.55566;939.525;;;;
2020/01/17 14:28:40;;;;;;;8.9;2.7;;;;;;;15.94;26.86621;939.5439;;;;
2020/01/17 14:31:05;;;;;;;6.4;2.9;;;;;;;15.55;27.53516;939.5535;;;;
2020/01/17 14:33:31;;;;;;;13.7;6.1;;;;;;;15.41;27.89551;939.6024;;;;